Time;durP1;ratioP1;P1;durP2;ratioP2;P2;SDS_P1;SDS_P2;PMS_P1;PMS_P2;Temp;Humidity;BMP_temperature;BMP_pressure;BME280_temperature;BME280_humidity;BME280_pressure;Samples;Min_cycle;Max_cycle;Signal;HPM_P1;HPM_P2
2022/10/27 00:02:29;;;;;;;6.35;4.30;;;;;;;15.51;100.00;102006.47;10381891;28;20084;-74
2022/10/27 00:07:29;;;;;;;5.45;3.25;;;;;;;15.53;100.00;102009.81;10379849;28;20065;-74
2022/10/27 00:12:30;;;;;;;6.97;4.00;;;;;;;15.50;100.00;102014.84;10379094;28;20219;-74
2022/10/27 00:17:30;;;;;;;4.55;3.25;;;;;;;15.52;100.00;102019.06;10378709;28;20109;-74
2022/10/27 00:22:31;;;;;;;6.13;3.25;;;;;;;15.51;100.00;102022.84;10378901;28;20063;-74
2022/10/27 00:27:31;;;;;;;5.95;2.50;;;;;;;15.34;100.00;102029.66;10376546;28;20456;-67
2022/10/27 00:32:32;;;;;;;4.40;2.72;;;;;;;15.19;100.00;102020.75;10377880;28;20034;-69
2022/10/27 00:37:32;;;;;;;9.02;3.60;;;;;;;15.11;100.00;102030.78;10377561;28;20042;-67
2022/10/27 00:42:32;;;;;;;4.00;3.08;;;;;;;15.05;100.00;102037.03;10377591;28;20041;-68
2022/10/27 00:47:34;;;;;;;18.73;5.50;;;;;;;15.03;100.00;102038.31;10377265;28;20570;-67
2022/10/27 00:52:39;;;;;;;19.00;5.90;;;;;;;14.94;100.00;102036.75;10377753;28;20026;-67
2022/10/27 00:57:39;;;;;;;7.90;4.47;;;;;;;14.92;100.00;102036.94;10377490;28;20076;-68
2022/10/27 01:02:40;;;;;;;13.10;6.20;;;;;;;14.92;100.00;102047.03;10359087;28;20037;-67
2022/10/27 01:07:41;;;;;;;5.32;4.65;;;;;;;14.85;100.00;102049.69;10375477;28;20410;-68
2022/10/27 01:12:41;;;;;;;4.15;3.70;;;;;;;14.81;100.00;102035.63;10359982;28;20489;-68
2022/10/27 01:17:54;;;;;;;7.80;4.63;;;;;;;14.76;100.00;102032.63;10359237;28;20026;-68
2022/10/27 01:23:09;;;;;;;11.25;4.80;;;;;;;14.70;100.00;102036.16;10359104;28;20057;-67
2022/10/27 01:28:40;;;;;;;14.70;5.15;;;;;;;14.64;100.00;102037.78;10375134;28;20041;-68
2022/10/27 01:33:48;;;;;;;10.10;6.75;;;;;;;14.59;100.00;102044.88;10359666;28;20119;-68
2022/10/27 01:38:51;;;;;;;10.18;4.00;;;;;;;14.52;100.00;102036.63;10376410;28;20033;-67
2022/10/27 01:43:54;;;;;;;12.68;4.95;;;;;;;14.51;100.00;102040.38;10375683;28;20038;-67
2022/10/27 01:48:55;;;;;;;13.50;4.70;;;;;;;14.49;100.00;102034.28;10373108;28;20056;-68
2022/10/27 01:53:55;;;;;;;15.93;4.82;;;;;;;14.45;100.00;102022.06;10357428;28;20034;-68
2022/10/27 01:59:07;;;;;;;9.77;5.18;;;;;;;14.49;100.00;102017.91;10373454;28;20477;-68
2022/10/27 02:04:46;;;;;;;17.60;4.93;;;;;;;14.50;100.00;102016.03;10374519;28;20038;-67
2022/10/27 02:09:53;;;;;;;5.45;4.57;;;;;;;14.55;100.00;102016.28;10350432;28;20160;-68
2022/10/27 02:14:53;;;;;;;7.40;4.18;;;;;;;14.54;100.00;102014.63;10375312;28;20041;-68
2022/10/27 02:19:54;;;;;;;5.38;3.85;;;;;;;14.57;100.00;102017.78;10383500;28;20037;-69
2022/10/27 02:24:54;;;;;;;5.32;4.18;;;;;;;14.54;100.00;102009.16;10365383;28;20046;-69
2022/10/27 02:29:56;;;;;;;6.45;3.53;;;;;;;14.51;100.00;102012.28;10381320;28;20040;-68
2022/10/27 02:34:57;;;;;;;10.77;5.60;;;;;;;14.53;100.00;102004.75;10364392;28;20033;-67
2022/10/27 02:39:57;;;;;;;13.77;5.47;;;;;;;14.50;100.00;101997.78;10364794;28;20107;-68
2022/10/27 02:44:57;;;;;;;6.72;4.55;;;;;;;14.42;100.00;101998.78;10380616;28;20033;-67
2022/10/27 02:49:58;;;;;;;17.58;4.97;;;;;;;14.34;100.00;101996.19;10380459;28;20548;-68
2022/10/27 02:54:58;;;;;;;9.55;4.80;;;;;;;14.33;100.00;101999.94;10381729;28;20096;-68
2022/10/27 02:59:59;;;;;;;9.80;4.60;;;;;;;14.34;100.00;102001.63;10381601;28;20038;-68
2022/10/27 03:04:59;;;;;;;16.77;5.38;;;;;;;14.32;100.00;101986.50;10381130;28;20026;-68
2022/10/27 03:09:59;;;;;;;4.40;3.97;;;;;;;14.40;100.00;101989.13;10379675;28;20513;-67
2022/10/27 03:15:00;;;;;;;14.70;4.25;;;;;;;14.41;100.00;101994.34;10380595;28;20492;-67
2022/10/27 03:20:00;;;;;;;5.07;3.95;;;;;;;14.33;100.00;101991.78;10380532;28;20033;-67
2022/10/27 03:25:01;;;;;;;9.68;5.10;;;;;;;14.29;100.00;101985.00;10380661;28;20061;-67
2022/10/27 03:30:01;;;;;;;4.97;4.53;;;;;;;14.28;100.00;101977.06;10378649;28;20393;-68
2022/10/27 03:35:01;;;;;;;5.32;3.92;;;;;;;14.36;100.00;101991.38;10379272;28;20050;-68
2022/10/27 03:40:02;;;;;;;10.70;4.35;;;;;;;14.37;100.00;102000.41;10380335;28;20128;-68
2022/10/27 03:45:02;;;;;;;13.02;5.20;;;;;;;14.33;100.00;102008.13;10378603;28;20462;-67
2022/10/27 03:50:03;;;;;;;7.50;4.65;;;;;;;14.34;100.00;102007.09;10378093;28;20038;-67
2022/10/27 03:55:04;;;;;;;9.02;3.85;;;;;;;14.31;100.00;102014.81;10378119;28;20374;-68
2022/10/27 04:00:05;;;;;;;5.13;3.25;;;;;;;14.34;100.00;102015.25;10379034;28;20497;-67
2022/10/27 04:05:06;;;;;;;11.27;4.18;;;;;;;14.36;100.00;102018.63;10361720;28;20038;-67
2022/10/27 04:10:06;;;;;;;22.63;4.03;;;;;;;14.39;100.00;102020.13;10379966;28;20113;-67
2022/10/27 04:15:07;;;;;;;6.78;3.17;;;;;;;14.44;100.00;102014.91;10380750;28;20092;-67
2022/10/27 04:20:08;;;;;;;3.65;3.35;;;;;;;14.62;100.00;102018.06;10376924;28;20113;-68
2022/10/27 04:25:08;;;;;;;8.82;4.13;;;;;;;14.65;100.00;102008.66;10379446;28;20053;-67
2022/10/27 04:30:09;;;;;;;8.68;4.15;;;;;;;14.73;100.00;102026.72;10379846;28;20045;-67
2022/10/27 04:35:10;;;;;;;5.90;3.38;;;;;;;14.75;100.00;102028.22;10378356;28;20038;-67
2022/10/27 04:40:10;;;;;;;3.15;2.88;;;;;;;14.76;100.00;102018.16;10376580;28;20053;-67
2022/10/27 04:45:11;;;;;;;3.72;3.15;;;;;;;14.73;100.00;102015.81;10377498;28;20037;-67
2022/10/27 04:50:12;;;;;;;2.85;2.53;;;;;;;14.74;100.00;102006.59;10376671;28;20120;-67
2022/10/27 04:55:12;;;;;;;6.90;3.00;;;;;;;14.76;100.00;102009.97;10359606;28;20034;-70
2022/10/27 05:00:13;;;;;;;5.50;3.67;;;;;;;14.86;100.00;102005.84;10376198;28;20533;-70
2022/10/27 05:05:13;;;;;;;2.83;2.63;;;;;;;14.94;100.00;101999.41;10374971;28;20038;-70
2022/10/27 05:10:14;;;;;;;14.50;3.40;;;;;;;15.02;100.00;101996.53;10374495;28;20038;-70
2022/10/27 05:15:14;;;;;;;10.90;3.92;;;;;;;15.08;100.00;101995.72;10294763;28;20103;-66
2022/10/27 05:20:15;;;;;;;3.05;2.75;;;;;;;15.09;100.00;101991.09;10374143;28;20492;-66
2022/10/27 05:25:15;;;;;;;7.35;2.58;;;;;;;15.10;100.00;101990.91;10375537;28;20108;-67
2022/10/27 05:30:16;;;;;;;7.30;2.58;;;;;;;15.13;100.00;101989.69;10374106;28;20046;-68
2022/10/27 05:35:16;;;;;;;2.78;2.30;;;;;;;15.20;100.00;101986.97;10373975;28;20042;-67
2022/10/27 05:40:16;;;;;;;2.53;2.33;;;;;;;15.11;100.00;101973.50;10374696;28;20478;-67
2022/10/27 05:45:17;;;;;;;7.72;3.15;;;;;;;15.00;100.00;101965.88;10375131;28;20029;-67
2022/10/27 05:50:18;;;;;;;3.38;2.85;;;;;;;14.95;100.00;101962.91;10372854;28;20061;-66
2022/10/27 05:55:18;;;;;;;5.03;2.67;;;;;;;14.87;100.00;101965.81;10374534;28;20540;-68
2022/10/27 06:00:19;;;;;;;4.38;2.22;;;;;;;14.82;100.00;101960.94;10356787;28;20053;-67
2022/10/27 06:05:19;;;;;;;2.35;2.15;;;;;;;14.73;100.00;101959.41;10374681;28;20037;-67
2022/10/27 06:10:20;;;;;;;9.30;3.50;;;;;;;14.67;100.00;101953.91;10375408;28;20045;-67
2022/10/27 06:15:20;;;;;;;6.50;2.38;;;;;;;14.68;100.00;101952.84;10374222;28;20042;-67
2022/10/27 06:20:21;;;;;;;6.03;2.85;;;;;;;14.66;100.00;101942.16;10374084;28;20037;-67
2022/10/27 06:25:21;;;;;;;3.40;2.72;;;;;;;14.53;100.00;101934.72;10373233;28;20466;-68
2022/10/27 06:30:21;;;;;;;6.40;2.95;;;;;;;14.47;100.00;101930.03;10373666;28;20038;-67
2022/10/27 06:35:22;;;;;;;6.03;2.50;;;;;;;14.39;100.00;101932.94;10355880;28;20474;-68
2022/10/27 06:40:22;;;;;;;2.88;2.60;;;;;;;14.36;100.00;101933.31;10373525;28;20045;-68
2022/10/27 06:45:23;;;;;;;5.68;2.28;;;;;;;14.34;100.00;101936.22;10372780;28;20064;-68
2022/10/27 06:50:23;;;;;;;3.08;2.80;;;;;;;14.37;100.00;101935.00;10372478;28;20033;-68
2022/10/27 06:55:23;;;;;;;5.70;2.72;;;;;;;14.41;100.00;101930.84;10373219;28;20121;-67
2022/10/27 07:00:24;;;;;;;10.68;3.33;;;;;;;14.42;100.00;101933.38;10373835;28;20054;-67
2022/10/27 07:05:24;;;;;;;5.50;2.33;;;;;;;14.43;100.00;101931.50;10380658;28;20026;-67
2022/10/27 07:10:25;;;;;;;7.13;3.13;;;;;;;14.47;100.00;101930.03;10364942;28;20045;-68
2022/10/27 07:15:27;;;;;;;6.78;2.72;;;;;;;14.52;100.00;101930.34;10385043;28;20034;-69
2022/10/27 07:20:28;;;;;;;7.78;3.10;;;;;;;14.58;100.00;101926.81;10365322;28;20037;-68
2022/10/27 07:25:29;;;;;;;14.20;4.05;;;;;;;14.92;100.00;101938.75;10378512;28;20054;-67
2022/10/27 07:30:31;;;;;;;4.00;2.75;;;;;;;15.67;100.00;101938.91;10364229;28;20036;-67
2022/10/27 07:35:32;;;;;;;6.82;2.83;;;;;;;15.88;100.00;101935.16;10363464;28;20080;-67
2022/10/27 07:40:32;;;;;;;3.60;3.08;;;;;;;16.26;100.00;101927.22;10364440;28;20064;-68
2022/10/27 07:45:33;;;;;;;6.30;2.45;;;;;;;16.42;100.00;101923.22;10379501;28;20022;-67
2022/10/27 07:50:33;;;;;;;5.25;2.13;;;;;;;16.32;100.00;101920.06;10361842;28;20129;-67
2022/10/27 07:55:35;;;;;;;8.70;3.17;;;;;;;16.56;100.00;101926.78;10362025;28;20419;-67
2022/10/27 08:00:37;;;;;;;10.13;2.75;;;;;;;16.90;100.00;101929.25;10378783;28;20069;-67
2022/10/27 08:05:37;;;;;;;5.50;2.67;;;;;;;17.12;100.00;101932.56;10361332;28;20033;-66
2022/10/27 08:10:38;;;;;;;2.95;2.70;;;;;;;17.13;99.07;101925.19;10378491;28;20118;-68
2022/10/27 08:15:39;;;;;;;7.55;3.15;;;;;;;17.18;100.00;101918.03;10377988;28;20366;-67
2022/10/27 08:20:41;;;;;;;3.83;2.15;;;;;;;17.76;97.83;101916.25;10377120;28;20382;-65
2022/10/27 08:25:41;;;;;;;3.70;1.88;;;;;;;17.90;94.94;101906.94;10376519;28;20058;-66
2022/10/27 08:30:42;;;;;;;2.35;2.03;;;;;;;17.97;93.50;101904.16;10377169;28;20030;-66
2022/10/27 08:35:42;;;;;;;1.90;1.80;;;;;;;17.57;87.40;101885.19;10359303;28;20040;-67
2022/10/27 08:40:58;;;;;;;4.13;2.58;;;;;;;17.58;89.17;101879.50;10359117;28;20096;-67
2022/10/27 08:46:05;;;;;;;1.98;1.88;;;;;;;17.83;87.76;101876.81;10376602;28;20026;-66
2022/10/27 08:51:12;;;;;;;5.13;1.73;;;;;;;17.99;82.03;101869.94;10360369;28;20029;-65
2022/10/27 08:56:13;;;;;;;2.10;1.42;;;;;;;18.58;78.70;101879.53;10344259;28;20048;-67
2022/10/27 09:01:35;;;;;;;1.60;1.20;;;;;;;19.70;76.50;101876.47;10342441;28;20038;-66
2022/10/27 09:07:11;;;;;;;1.50;1.40;;;;;;;19.63;73.39;101870.22;10375930;28;20033;-66
2022/10/27 09:12:26;;;;;;;5.25;1.90;;;;;;;19.08;74.76;101866.75;10368203;28;20080;-67
2022/10/27 09:17:31;;;;;;;2.15;1.95;;;;;;;19.30;76.67;101873.41;10343816;28;20033;-67
2022/10/27 09:22:32;;;;;;;1.83;1.42;;;;;;;20.09;73.25;101865.91;10359488;28;20033;-66
2022/10/27 09:27:33;;;;;;;1.95;1.58;;;;;;;20.59;72.01;101859.13;10374132;28;20425;-67
2022/10/27 09:32:34;;;;;;;2.97;1.73;;;;;;;19.79;71.53;101859.66;10373973;28;20092;-67
2022/10/27 09:37:39;;;;;;;4.68;2.20;;;;;;;19.41;74.99;101830.63;10356997;28;20048;-66
2022/10/27 09:42:39;;;;;;;1.83;1.60;;;;;;;19.35;76.41;101824.13;10359788;28;20026;-66
2022/10/27 09:47:41;;;;;;;1.58;1.33;;;;;;;19.13;76.04;101822.97;10375118;28;20037;-67
2022/10/27 09:52:42;;;;;;;3.33;2.10;;;;;;;19.08;77.01;101820.06;10373601;28;20038;-66
2022/10/27 09:57:43;;;;;;;1.90;1.80;;;;;;;19.18;76.74;101812.16;10375146;28;20057;-67
2022/10/27 10:03:16;;;;;;;1.63;1.52;;;;;;;19.28;79.46;101813.25;10373319;28;20109;-66
2022/10/27 10:08:24;;;;;;;3.95;2.13;;;;;;;19.33;79.38;101811.69;10374021;28;20040;-68
2022/10/27 10:13:28;;;;;;;8.23;2.67;;;;;;;19.21;78.93;101817.16;10374135;28;20033;-66
2022/10/27 10:18:29;;;;;;;2.85;2.35;;;;;;;19.01;79.13;101799.03;10372782;28;20037;-66
2022/10/27 10:23:32;;;;;;;4.38;2.83;;;;;;;19.02;80.65;101810.88;10372624;28;20046;-66
2022/10/27 10:28:38;;;;;;;3.28;2.08;;;;;;;18.93;79.70;101806.78;10356778;28;20037;-67
2022/10/27 10:33:40;;;;;;;;;;;;;;;19.10;79.30;101795.97;10374868;28;20446;-66
2022/10/27 10:38:41;;;;;;;1.83;1.73;;;;;;;19.42;79.02;101816.63;10393692;28;20007;-67
2022/10/27 10:43:42;;;;;;;2.33;2.22;;;;;;;19.57;81.03;101807.13;10380266;28;20037;-66
2022/10/27 10:48:46;;;;;;;4.57;2.63;;;;;;;19.63;79.19;101809.78;10380288;28;20045;-67
2022/10/27 10:53:50;;;;;;;3.10;2.83;;;;;;;19.42;79.53;101808.38;10379448;28;20044;-66
2022/10/27 10:59:04;;;;;;;3.97;2.58;;;;;;;19.24;79.69;101802.94;10380449;28;20462;-66
2022/10/27 11:04:04;;;;;;;2.45;2.25;;;;;;;19.07;82.62;101801.94;10365648;28;20131;-66
2022/10/27 11:09:04;;;;;;;11.52;2.42;;;;;;;18.96;82.48;101795.34;10380821;28;20063;-67
2022/10/27 11:14:06;;;;;;;6.80;1.98;;;;;;;18.92;82.74;101784.00;10363972;28;20091;-66
2022/10/27 11:19:08;;;;;;;1.67;1.58;;;;;;;18.93;82.81;101777.41;10362809;28;20040;-65
2022/10/27 11:24:20;;;;;;;6.50;2.75;;;;;;;18.88;84.46;101787.41;10363095;28;20076;-66
2022/10/27 11:29:31;;;;;;;4.80;2.83;;;;;;;18.72;84.04;101786.09;10380521;28;20129;-66
2022/10/27 11:34:59;;;;;;;2.85;2.65;;;;;;;18.26;88.07;101760.06;10379649;28;20058;-66
2022/10/27 11:40:10;;;;;;;18.48;3.40;;;;;;;18.15;89.82;101758.91;10381495;28;20037;-67
2022/10/27 11:45:18;;;;;;;4.78;3.80;;;;;;;18.13;90.97;101767.38;10380853;28;20112;-66
2022/10/27 11:50:23;;;;;;;25.30;3.72;;;;;;;18.23;91.38;101741.31;10378326;28;20034;-66
2022/10/27 11:55:28;;;;;;;7.22;2.35;;;;;;;18.36;92.05;101742.00;10365502;28;20061;-68
2022/10/27 12:00:28;;;;;;;4.25;2.60;;;;;;;18.46;91.91;101735.97;10382371;28;20040;-66
2022/10/27 12:05:37;;;;;;;3.60;2.28;;;;;;;18.39;91.85;101729.75;10382098;28;20113;-66
2022/10/27 12:10:56;;;;;;;2.88;2.20;;;;;;;18.54;92.46;101721.97;10378572;28;20029;-66
2022/10/27 12:16:00;;;;;;;6.15;2.72;;;;;;;18.86;91.45;101702.56;10377996;28;20061;-66
2022/10/27 12:21:13;;;;;;;7.05;2.97;;;;;;;19.39;88.65;101706.41;10360630;28;20037;-67
2022/10/27 12:26:24;;;;;;;5.32;2.58;;;;;;;19.74;86.07;101709.19;10377028;28;20070;-67
2022/10/27 12:31:25;;;;;;;7.38;3.67;;;;;;;19.77;85.92;101699.66;10376677;28;20509;-66
2022/10/27 12:36:56;;;;;;;7.20;3.40;;;;;;;19.84;85.33;101681.94;10376511;28;20034;-66
2022/10/27 12:42:10;;;;;;;2.22;1.88;;;;;;;19.86;85.31;101688.06;10377630;28;20454;-66
2022/10/27 12:47:32;;;;;;;4.13;2.33;;;;;;;19.74;84.54;101695.47;10378139;28;20417;-67
2022/10/27 12:52:35;;;;;;;5.18;2.50;;;;;;;19.65;86.00;101689.47;10376648;28;20037;-66
2022/10/27 12:58:00;;;;;;;10.55;3.08;;;;;;;19.81;86.70;101695.34;10359768;28;20034;-67
2022/10/27 13:03:19;;;;;;;8.07;3.67;;;;;;;20.14;86.06;101697.47;10359809;28;20444;-66
2022/10/27 13:08:47;;;;;;;4.78;2.80;;;;;;;20.86;82.58;101689.56;10361126;28;20068;-65
2022/10/27 13:14:29;;;;;;;5.18;2.45;;;;;;;21.58;78.76;101682.56;10377689;28;20041;-66
2022/10/27 13:19:35;;;;;;;4.35;2.00;;;;;;;21.54;76.33;101681.41;10326275;28;20042;-66
2022/10/27 13:25:15;;;;;;;4.10;2.77;;;;;;;21.46;77.66;101679.06;10374548;28;20563;-66
2022/10/27 13:30:27;;;;;;;3.72;2.58;;;;;;;21.27;79.58;101676.53;10353692;28;20381;-66
2022/10/27 13:35:30;;;;;;;2.25;2.15;;;;;;;21.41;81.55;101668.81;10373714;28;20029;-66
2022/10/27 13:40:37;;;;;;;8.27;3.10;;;;;;;21.27;82.19;101676.53;10358042;28;20030;-66
2022/10/27 13:45:37;;;;;;;5.57;3.05;;;;;;;20.96;82.17;101677.09;10376873;28;20430;-66
2022/10/27 13:50:47;;;;;;;3.33;3.03;;;;;;;21.27;84.14;101679.28;10374606;28;20116;-66
2022/10/27 13:55:57;;;;;;;5.75;3.17;;;;;;;21.57;82.03;101676.22;10374904;28;20033;-66
2022/10/27 14:01:10;;;;;;;10.60;3.88;;;;;;;21.36;81.15;101672.31;10373804;28;20041;-66
2022/10/27 14:06:13;;;;;;;4.45;3.83;;;;;;;21.27;82.61;101673.78;10375560;28;20038;-66
2022/10/27 14:11:31;;;;;;;3.20;2.78;;;;;;;21.18;83.11;101685.47;10374085;28;20037;-66
2022/10/27 14:16:33;;;;;;;2.85;2.25;;;;;;;21.43;83.97;101671.31;10374609;28;20061;-65
2022/10/27 14:21:35;;;;;;;4.15;2.80;;;;;;;21.63;84.39;101662.50;10373381;28;20076;-66
2022/10/27 14:26:36;;;;;;;7.05;2.75;;;;;;;21.42;80.32;101659.44;10356878;28;20073;-66
2022/10/27 14:31:36;;;;;;;11.57;3.08;;;;;;;21.19;82.78;101676.13;10358145;28;20112;-66
2022/10/27 14:36:37;;;;;;;9.23;4.20;;;;;;;20.96;82.49;101672.41;10373563;28;20042;-67
2022/10/27 14:41:39;;;;;;;8.63;3.55;;;;;;;20.90;84.03;101667.91;10342628;28;20030;-66
2022/10/27 14:46:41;;;;;;;6.00;3.03;;;;;;;20.67;84.45;101675.19;10374627;28;20041;-67
2022/10/27 14:51:41;;;;;;;9.02;4.05;;;;;;;20.63;85.48;101679.50;10372905;28;20061;-66
2022/10/27 14:56:42;;;;;;;10.65;4.15;;;;;;;20.65;85.16;101685.63;10341207;28;20188;-65
2022/10/27 15:01:42;;;;;;;10.73;2.67;;;;;;;20.73;84.92;101686.28;10372460;28;20429;-65
2022/10/27 15:06:44;;;;;;;3.35;3.05;;;;;;;20.62;84.46;101677.84;10374190;28;20125;-67
2022/10/27 15:11:44;;;;;;;4.53;2.80;;;;;;;20.62;85.37;101688.88;10357210;28;20041;-67
2022/10/27 15:16:48;;;;;;;8.48;2.90;;;;;;;20.45;86.29;101676.91;10372278;28;20034;-66
2022/10/27 15:21:48;;;;;;;13.38;3.40;;;;;;;20.35;86.40;101690.47;10371802;28;20084;-67
2022/10/27 15:26:52;;;;;;;13.68;3.25;;;;;;;20.29;86.79;101700.53;10360652;28;20557;-66
2022/10/27 15:31:56;;;;;;;7.47;2.88;;;;;;;20.21;87.28;101704.50;10362474;28;20497;-65
2022/10/27 15:37:22;;;;;;;15.52;3.75;;;;;;;20.08;87.47;101699.25;10378674;28;20089;-66
2022/10/27 15:42:26;;;;;;;8.35;3.50;;;;;;;19.98;88.27;101705.38;10379687;28;20034;-66
2022/10/27 15:47:41;;;;;;;7.30;3.35;;;;;;;19.78;89.31;101704.06;10379411;28;20053;-66
2022/10/27 15:52:42;;;;;;;3.35;3.05;;;;;;;19.62;90.09;101703.69;10378901;28;20069;-65
2022/10/27 15:57:43;;;;;;;5.70;3.53;;;;;;;19.48;90.40;101715.97;10379450;28;20446;-65
2022/10/27 16:02:46;;;;;;;9.23;3.35;;;;;;;19.32;91.54;101711.16;10379256;28;20371;-66
2022/10/27 16:07:47;;;;;;;7.05;3.78;;;;;;;19.18;91.85;101708.63;10379018;28;20370;-65
2022/10/27 16:12:47;;;;;;;4.93;3.45;;;;;;;19.01;92.13;101722.19;10378521;28;20041;-66
2022/10/27 16:17:55;;;;;;;5.95;3.70;;;;;;;18.86;92.90;101712.69;10378484;28;20037;-66
2022/10/27 16:22:55;;;;;;;8.45;3.38;;;;;;;18.71;93.46;101719.41;10360820;28;20053;-66
2022/10/27 16:27:57;;;;;;;11.23;4.35;;;;;;;18.60;93.45;101720.19;10379110;28;20037;-66
2022/10/27 16:33:02;;;;;;;7.47;4.75;;;;;;;18.46;93.98;101727.75;10377001;28;20116;-66
2022/10/27 16:38:02;;;;;;;15.25;4.15;;;;;;;18.28;94.66;101716.78;10359269;28;20033;-67
2022/10/27 16:43:02;;;;;;;6.15;4.57;;;;;;;18.18;96.85;101714.56;10377618;28;20026;-66
2022/10/27 16:48:03;;;;;;;4.65;3.58;;;;;;;18.20;96.21;101714.38;10376095;28;20116;-67
2022/10/27 16:53:03;;;;;;;8.85;4.05;;;;;;;18.19;96.82;101709.94;10377222;28;20034;-66
2022/10/27 16:58:04;;;;;;;5.40;4.00;;;;;;;18.17;98.57;101706.59;10377226;28;20061;-65
2022/10/27 17:03:04;;;;;;;6.65;3.58;;;;;;;18.26;98.58;101714.28;10376312;28;20037;-66
2022/10/27 17:08:04;;;;;;;4.03;3.40;;;;;;;18.25;98.76;101709.88;10375305;28;20053;-66
2022/10/27 17:13:05;;;;;;;12.18;5.38;;;;;;;18.24;98.09;101705.44;10343090;28;20042;-66
2022/10/27 17:18:05;;;;;;;15.35;4.65;;;;;;;18.16;97.87;101715.91;10375539;28;20489;-66
2022/10/27 17:23:06;;;;;;;5.68;4.13;;;;;;;18.07;98.28;101705.22;10375826;28;20086;-66
2022/10/27 17:28:06;;;;;;;8.70;4.65;;;;;;;17.92;97.53;101695.69;10374764;28;20053;-66
2022/10/27 17:33:06;;;;;;;9.27;3.38;;;;;;;17.90;99.57;101695.94;10376073;28;20044;-67
2022/10/27 17:38:07;;;;;;;7.43;4.15;;;;;;;17.91;98.63;101694.88;10375833;28;20038;-66
2022/10/27 17:43:07;;;;;;;5.13;3.83;;;;;;;17.93;98.87;101697.34;10375309;28;20177;-67
2022/10/27 17:48:08;;;;;;;4.93;3.58;;;;;;;17.87;98.40;101699.13;10373507;28;20034;-67
2022/10/27 17:53:08;;;;;;;14.48;5.85;;;;;;;17.70;97.92;101704.31;10374527;28;20037;-66
2022/10/27 17:58:09;;;;;;;9.60;4.80;;;;;;;17.54;98.34;101699.41;10377006;28;20038;-66
2022/10/27 18:03:09;;;;;;;10.90;4.35;;;;;;;17.42;98.01;101697.41;10376580;28;20033;-66
2022/10/27 18:08:09;;;;;;;11.52;4.50;;;;;;;17.32;98.32;101696.22;10375115;28;20038;-66
2022/10/27 18:13:10;;;;;;;17.83;5.60;;;;;;;17.22;98.33;101696.72;10374377;28;20037;-66
2022/10/27 18:18:11;;;;;;;10.43;3.88;;;;;;;17.14;98.73;101697.00;10375400;28;20063;-67
2022/10/27 18:23:11;;;;;;;9.82;4.70;;;;;;;17.15;99.02;101706.88;10357495;28;20089;-66
2022/10/27 18:28:11;;;;;;;5.22;3.25;;;;;;;17.17;100.00;101738.44;10374043;28;20454;-67
2022/10/27 18:33:12;;;;;;;12.00;4.65;;;;;;;17.14;100.00;101740.78;10374658;28;20120;-66
2022/10/27 18:38:13;;;;;;;5.63;3.90;;;;;;;17.20;99.92;101742.63;10357383;28;20076;-66
2022/10/27 18:43:13;;;;;;;6.38;3.88;;;;;;;17.20;99.56;101753.59;10372526;28;20524;-68
2022/10/27 18:48:13;;;;;;;14.85;4.90;;;;;;;17.14;99.34;101749.00;10373082;28;20045;-66
2022/10/27 18:53:14;;;;;;;11.63;4.63;;;;;;;16.98;99.29;101753.09;10373717;28;20092;-66
2022/10/27 18:58:15;;;;;;;6.05;4.43;;;;;;;16.94;100.00;101741.75;10377721;28;20454;-66
2022/10/27 19:03:16;;;;;;;8.25;5.00;;;;;;;16.98;100.00;101731.19;10380833;28;20389;-65
2022/10/27 19:08:16;;;;;;;17.83;5.80;;;;;;;17.21;100.00;101730.63;10396299;28;20466;-67
2022/10/27 19:13:17;;;;;;;11.15;5.88;;;;;;;17.52;100.00;101718.81;10381892;28;20034;-66
2022/10/27 19:18:17;;;;;;;14.40;4.63;;;;;;;17.58;100.00;101717.91;10379026;28;20492;-67
2022/10/27 19:23:17;;;;;;;7.72;4.80;;;;;;;17.55;100.00;101734.78;10378879;28;20049;-66
2022/10/27 19:28:19;;;;;;;7.13;4.63;;;;;;;17.55;100.00;101740.28;10378951;28;20042;-66
2022/10/27 19:33:19;;;;;;;13.40;5.35;;;;;;;17.59;100.00;101724.22;10379358;28;20065;-66
2022/10/27 19:38:20;;;;;;;15.93;5.55;;;;;;;17.62;100.00;101723.78;10380416;28;20462;-66
2022/10/27 19:43:22;;;;;;;12.52;5.75;;;;;;;17.69;100.00;101726.44;10379816;28;20037;-65
2022/10/27 19:48:22;;;;;;;4.68;4.28;;;;;;;17.73;100.00;101733.16;10379869;28;20038;-66
2022/10/27 19:53:23;;;;;;;8.20;5.55;;;;;;;17.70;100.00;101730.84;10380434;28;20093;-67
2022/10/27 19:58:23;;;;;;;10.02;4.70;;;;;;;17.68;100.00;101742.06;10380392;28;20037;-66
2022/10/27 20:03:23;;;;;;;20.30;5.35;;;;;;;17.64;100.00;101749.88;10379027;28;20108;-66
2022/10/27 20:08:24;;;;;;;10.38;4.18;;;;;;;17.66;100.00;101747.75;10377059;28;20046;-66
2022/10/27 20:13:24;;;;;;;8.38;5.50;;;;;;;17.71;100.00;101746.22;10378153;28;20049;-66
2022/10/27 20:18:25;;;;;;;7.40;4.95;;;;;;;17.70;100.00;101734.44;10378868;28;20038;-67
2022/10/27 20:23:27;;;;;;;10.00;5.90;;;;;;;17.63;100.00;101723.53;10377606;28;20509;-67
2022/10/27 20:28:28;;;;;;;7.10;4.97;;;;;;;17.51;100.00;101728.06;10360960;28;20030;-66
2022/10/27 20:33:30;;;;;;;33.35;6.50;;;;;;;17.36;100.00;101731.16;10377336;28;20036;-66
2022/10/27 20:38:34;;;;;;;13.57;6.10;;;;;;;17.20;100.00;101761.81;10377554;28;20488;-66
2022/10/27 20:43:34;;;;;;;10.80;5.95;;;;;;;17.06;100.00;101757.44;10359816;28;20069;-67
2022/10/27 20:48:35;;;;;;;13.32;6.80;;;;;;;16.94;100.00;101747.22;10359501;28;20034;-66
2022/10/27 20:53:36;;;;;;;24.70;6.03;;;;;;;16.77;100.00;101753.41;10377538;28;20041;-65
2022/10/27 20:58:36;;;;;;;6.63;5.63;;;;;;;16.70;100.00;101742.47;10375676;28;20386;-66
2022/10/27 21:03:36;;;;;;;13.10;6.97;;;;;;;16.63;100.00;101734.28;10377142;28;20045;-65
2022/10/27 21:08:37;;;;;;;6.78;6.18;;;;;;;16.68;100.00;101745.41;10374715;28;20398;-66
2022/10/27 21:13:37;;;;;;;11.98;8.10;;;;;;;16.69;100.00;101732.59;10377104;28;20072;-66
2022/10/27 21:18:37;;;;;;;19.88;6.00;;;;;;;16.68;100.00;101733.63;10375646;28;20069;-67
2022/10/27 21:23:38;;;;;;;11.05;6.32;;;;;;;16.71;100.00;101731.28;10376570;28;20505;-66
2022/10/27 21:28:39;;;;;;;12.20;7.78;;;;;;;16.66;100.00;101727.56;10375490;28;20049;-66
2022/10/27 21:33:40;;;;;;;6.57;5.88;;;;;;;16.67;100.00;101726.50;10375779;28;20037;-66
2022/10/27 21:38:42;;;;;;;12.68;6.88;;;;;;;16.64;100.00;101718.72;10376489;28;20033;-66
2022/10/27 21:43:44;;;;;;;11.35;7.32;;;;;;;16.67;100.00;101721.03;10373919;28;20030;-65
2022/10/27 21:48:44;;;;;;;15.70;8.02;;;;;;;16.75;100.00;101709.84;10375270;28;20504;-66
2022/10/27 21:53:45;;;;;;;8.32;5.95;;;;;;;16.85;100.00;101731.28;10358105;28;20038;-66
2022/10/27 21:58:45;;;;;;;10.93;6.53;;;;;;;16.86;100.00;101714.63;10374243;28;20438;-65
2022/10/27 22:03:46;;;;;;;11.57;7.40;;;;;;;16.86;100.00;101703.69;10374584;28;20071;-65
2022/10/27 22:08:46;;;;;;;13.40;8.23;;;;;;;16.78;100.00;101701.19;10375214;28;20363;-66
2022/10/27 22:13:47;;;;;;;18.10;7.20;;;;;;;16.67;100.00;101699.97;10374136;28;20053;-66
2022/10/27 22:18:51;;;;;;;14.15;8.32;;;;;;;16.64;100.00;101686.75;10374435;28;20072;-65
2022/10/27 22:23:52;;;;;;;19.70;7.57;;;;;;;16.59;100.00;101681.09;10374939;28;20065;-65
2022/10/27 22:28:52;;;;;;;14.30;8.57;;;;;;;16.57;100.00;101685.09;10375392;28;20109;-67
2022/10/27 22:33:54;;;;;;;11.00;7.65;;;;;;;16.58;100.00;101686.78;10376865;28;20050;-65
2022/10/27 22:38:56;;;;;;;8.40;7.53;;;;;;;16.57;100.00;101685.94;10364572;28;20117;-65
2022/10/27 22:43:56;;;;;;;12.48;6.68;;;;;;;16.60;100.00;101679.22;10380393;28;20037;-65
2022/10/27 22:48:57;;;;;;;9.32;6.45;;;;;;;16.56;100.00;101669.75;10380804;28;20162;-65
2022/10/27 22:53:57;;;;;;;11.80;7.40;;;;;;;16.54;100.00;101671.88;10380095;28;20117;-66
2022/10/27 22:58:59;;;;;;;7.20;6.10;;;;;;;16.36;100.00;101657.00;10382254;28;20061;-65
2022/10/27 23:04:01;;;;;;;11.95;6.93;;;;;;;16.19;100.00;101669.50;10381267;28;20029;-67